sensor_id;sensor_type;location;lat;lon;timestamp;P1;durP1;ratioP1;P2;durP2;ratioP2
80195;SDS011;69516;42.050;21.516;2023-08-01T00:00:02;6.93;;;5.45;;
80195;SDS011;69516;42.050;21.516;2023-08-01T00:02:30;7.75;;;5.78;;
80195;SDS011;69516;42.050;21.516;2023-08-01T00:04:56;7.53;;;6.00;;
80195;SDS011;69516;42.050;21.516;2023-08-01T00:07:22;8.15;;;5.95;;
80195;SDS011;69516;42.050;21.516;2023-08-01T00:09:49;7.88;;;6.20;;
80195;SDS011;69516;42.050;21.516;2023-08-01T00:12:15;7.75;;;5.45;;
80195;SDS011;69516;42.050;21.516;2023-08-01T00:14:41;6.53;;;5.35;;
80195;SDS011;69516;42.050;21.516;2023-08-01T00:17:07;7.93;;;6.18;;
80195;SDS011;69516;42.050;21.516;2023-08-01T00:19:33;7.47;;;5.05;;
80195;SDS011;69516;42.050;21.516;2023-08-01T00:21:59;6.80;;;5.10;;
80195;SDS011;69516;42.050;21.516;2023-08-01T00:24:25;7.97;;;4.60;;
80195;SDS011;69516;42.050;21.516;2023-08-01T00:26:51;6.75;;;5.18;;
80195;SDS011;69516;42.050;21.516;2023-08-01T00:29:20;6.30;;;4.75;;
80195;SDS011;69516;42.050;21.516;2023-08-01T00:31:46;7.63;;;5.10;;
80195;SDS011;69516;42.050;21.516;2023-08-01T00:34:12;7.03;;;4.75;;
80195;SDS011;69516;42.050;21.516;2023-08-01T00:36:39;5.65;;;4.57;;
80195;SDS011;69516;42.050;21.516;2023-08-01T00:39:05;5.93;;;4.50;;
80195;SDS011;69516;42.050;21.516;2023-08-01T00:41:31;7.07;;;5.03;;
80195;SDS011;69516;42.050;21.516;2023-08-01T00:43:57;6.55;;;4.93;;
80195;SDS011;69516;42.050;21.516;2023-08-01T00:46:23;7.38;;;4.68;;
80195;SDS011;69516;42.050;21.516;2023-08-01T00:48:50;6.80;;;4.95;;
80195;SDS011;69516;42.050;21.516;2023-08-01T00:51:16;6.50;;;5.10;;
80195;SDS011;69516;42.050;21.516;2023-08-01T00:53:43;6.85;;;5.30;;
80195;SDS011;69516;42.050;21.516;2023-08-01T00:56:11;7.30;;;5.68;;
80195;SDS011;69516;42.050;21.516;2023-08-01T00:58:38;6.78;;;4.97;;
80195;SDS011;69516;42.050;21.516;2023-08-01T01:01:04;7.15;;;5.03;;
80195;SDS011;69516;42.050;21.516;2023-08-01T01:03:30;6.68;;;5.28;;
80195;SDS011;69516;42.050;21.516;2023-08-01T01:06:05;7.10;;;5.00;;
80195;SDS011;69516;42.050;21.516;2023-08-01T01:08:32;6.53;;;5.10;;
80195;SDS011;69516;42.050;21.516;2023-08-01T01:10:58;7.18;;;5.32;;
80195;SDS011;69516;42.050;21.516;2023-08-01T01:13:24;6.53;;;5.22;;
80195;SDS011;69516;42.050;21.516;2023-08-01T01:15:50;7.75;;;5.45;;
80195;SDS011;69516;42.050;21.516;2023-08-01T01:18:16;7.15;;;5.22;;
80195;SDS011;69516;42.050;21.516;2023-08-01T01:20:42;7.00;;;5.07;;
80195;SDS011;69516;42.050;21.516;2023-08-01T01:23:08;6.72;;;5.18;;
80195;SDS011;69516;42.050;21.516;2023-08-01T01:25:35;6.90;;;5.20;;
80195;SDS011;69516;42.050;21.516;2023-08-01T01:28:03;7.57;;;5.28;;
80195;SDS011;69516;42.050;21.516;2023-08-01T01:30:30;6.65;;;5.35;;
80195;SDS011;69516;42.050;21.516;2023-08-01T01:32:58;8.43;;;5.47;;
80195;SDS011;69516;42.050;21.516;2023-08-01T01:35:25;6.10;;;5.18;;
80195;SDS011;69516;42.050;21.516;2023-08-01T01:37:51;6.97;;;5.50;;
80195;SDS011;69516;42.050;21.516;2023-08-01T01:40:17;8.23;;;5.70;;
80195;SDS011;69516;42.050;21.516;2023-08-01T01:42:43;7.97;;;5.47;;
80195;SDS011;69516;42.050;21.516;2023-08-01T01:45:10;8.00;;;5.90;;
80195;SDS011;69516;42.050;21.516;2023-08-01T01:47:36;7.70;;;5.60;;
80195;SDS011;69516;42.050;21.516;2023-08-01T01:50:02;7.72;;;5.68;;
80195;SDS011;69516;42.050;21.516;2023-08-01T01:52:30;7.65;;;6.38;;
80195;SDS011;69516;42.050;21.516;2023-08-01T01:54:58;7.90;;;6.22;;
80195;SDS011;69516;42.050;21.516;2023-08-01T01:57:24;9.00;;;6.45;;
80195;SDS011;69516;42.050;21.516;2023-08-01T01:59:50;8.20;;;6.47;;
80195;SDS011;69516;42.050;21.516;2023-08-01T02:02:16;9.07;;;6.03;;
80195;SDS011;69516;42.050;21.516;2023-08-01T02:04:42;9.05;;;6.28;;
80195;SDS011;69516;42.050;21.516;2023-08-01T02:07:08;9.02;;;6.90;;
80195;SDS011;69516;42.050;21.516;2023-08-01T02:09:34;9.25;;;7.00;;
80195;SDS011;69516;42.050;21.516;2023-08-01T02:12:00;11.20;;;6.97;;
80195;SDS011;69516;42.050;21.516;2023-08-01T02:14:26;9.70;;;6.47;;
80195;SDS011;69516;42.050;21.516;2023-08-01T02:16:52;8.75;;;6.47;;
80195;SDS011;69516;42.050;21.516;2023-08-01T02:19:19;8.00;;;6.03;;
80195;SDS011;69516;42.050;21.516;2023-08-01T02:21:45;8.10;;;5.70;;
80195;SDS011;69516;42.050;21.516;2023-08-01T02:24:11;7.03;;;5.65;;
80195;SDS011;69516;42.050;21.516;2023-08-01T02:26:37;6.93;;;5.13;;
80195;SDS011;69516;42.050;21.516;2023-08-01T02:29:03;7.45;;;5.57;;
80195;SDS011;69516;42.050;21.516;2023-08-01T02:31:29;6.38;;;4.78;;
80195;SDS011;69516;42.050;21.516;2023-08-01T02:33:55;7.85;;;5.32;;
80195;SDS011;69516;42.050;21.516;2023-08-01T02:36:21;7.78;;;5.20;;
80195;SDS011;69516;42.050;21.516;2023-08-01T02:38:47;6.78;;;4.95;;
80195;SDS011;69516;42.050;21.516;2023-08-01T02:41:13;7.63;;;4.70;;
80195;SDS011;69516;42.050;21.516;2023-08-01T02:43:39;8.02;;;4.18;;
80195;SDS011;69516;42.050;21.516;2023-08-01T02:46:06;6.40;;;4.50;;
80195;SDS011;69516;42.050;21.516;2023-08-01T02:48:32;7.65;;;4.50;;
80195;SDS011;69516;42.050;21.516;2023-08-01T02:51:00;6.65;;;4.35;;
80195;SDS011;69516;42.050;21.516;2023-08-01T02:53:26;6.53;;;4.75;;
80195;SDS011;69516;42.050;21.516;2023-08-01T02:55:52;7.70;;;4.05;;
80195;SDS011;69516;42.050;21.516;2023-08-01T02:58:19;5.68;;;4.13;;
80195;SDS011;69516;42.050;21.516;2023-08-01T03:00:45;6.32;;;4.60;;
80195;SDS011;69516;42.050;21.516;2023-08-01T03:03:12;7.88;;;4.70;;
80195;SDS011;69516;42.050;21.516;2023-08-01T03:05:38;6.68;;;4.28;;
80195;SDS011;69516;42.050;21.516;2023-08-01T03:08:04;8.40;;;4.93;;
80195;SDS011;69516;42.050;21.516;2023-08-01T03:10:31;6.80;;;4.82;;
80195;SDS011;69516;42.050;21.516;2023-08-01T03:12:57;6.93;;;5.22;;
80195;SDS011;69516;42.050;21.516;2023-08-01T03:15:23;5.93;;;4.38;;
80195;SDS011;69516;42.050;21.516;2023-08-01T03:17:49;6.68;;;4.50;;
80195;SDS011;69516;42.050;21.516;2023-08-01T03:20:15;5.97;;;4.15;;
80195;SDS011;69516;42.050;21.516;2023-08-01T03:22:41;6.50;;;4.40;;
80195;SDS011;69516;42.050;21.516;2023-08-01T03:25:07;6.25;;;4.57;;
80195;SDS011;69516;42.050;21.516;2023-08-01T03:27:34;6.60;;;4.82;;
80195;SDS011;69516;42.050;21.516;2023-08-01T03:30:00;8.20;;;5.35;;
80195;SDS011;69516;42.050;21.516;2023-08-01T03:32:27;7.43;;;5.43;;
80195;SDS011;69516;42.050;21.516;2023-08-01T03:34:53;7.13;;;5.25;;
80195;SDS011;69516;42.050;21.516;2023-08-01T03:37:19;7.38;;;5.45;;
80195;SDS011;69516;42.050;21.516;2023-08-01T03:39:45;8.05;;;6.07;;
80195;SDS011;69516;42.050;21.516;2023-08-01T03:42:11;7.57;;;5.95;;
80195;SDS011;69516;42.050;21.516;2023-08-01T03:44:37;7.65;;;6.05;;
80195;SDS011;69516;42.050;21.516;2023-08-01T03:47:04;9.07;;;6.15;;
80195;SDS011;69516;42.050;21.516;2023-08-01T03:49:31;8.18;;;6.15;;
80195;SDS011;69516;42.050;21.516;2023-08-01T03:51:57;8.20;;;6.07;;
80195;SDS011;69516;42.050;21.516;2023-08-01T03:54:23;7.57;;;6.13;;
80195;SDS011;69516;42.050;21.516;2023-08-01T03:56:49;10.20;;;7.22;;
80195;SDS011;69516;42.050;21.516;2023-08-01T03:59:17;9.32;;;7.13;;
80195;SDS011;69516;42.050;21.516;2023-08-01T04:01:43;9.80;;;7.97;;
80195;SDS011;69516;42.050;21.516;2023-08-01T04:04:10;11.57;;;8.32;;
80195;SDS011;69516;42.050;21.516;2023-08-01T04:06:36;11.85;;;8.07;;
80195;SDS011;69516;42.050;21.516;2023-08-01T04:09:02;10.82;;;8.48;;
80195;SDS011;69516;42.050;21.516;2023-08-01T04:11:28;16.17;;;8.73;;
80195;SDS011;69516;42.050;21.516;2023-08-01T04:13:55;11.10;;;8.50;;
80195;SDS011;69516;42.050;21.516;2023-08-01T04:16:21;10.13;;;8.25;;
80195;SDS011;69516;42.050;21.516;2023-08-01T04:18:47;13.18;;;8.35;;
80195;SDS011;69516;42.050;21.516;2023-08-01T04:21:13;10.52;;;7.95;;
80195;SDS011;69516;42.050;21.516;2023-08-01T04:23:40;41.10;;;26.27;;
80195;SDS011;69516;42.050;21.516;2023-08-01T04:26:06;30.55;;;21.15;;
80195;SDS011;69516;42.050;21.516;2023-08-01T04:28:33;11.45;;;8.82;;
80195;SDS011;69516;42.050;21.516;2023-08-01T04:30:59;12.77;;;8.00;;
80195;SDS011;69516;42.050;21.516;2023-08-01T04:33:25;12.48;;;9.35;;
80195;SDS011;69516;42.050;21.516;2023-08-01T04:35:52;12.57;;;8.05;;
80195;SDS011;69516;42.050;21.516;2023-08-01T04:38:18;11.85;;;7.18;;
80195;SDS011;69516;42.050;21.516;2023-08-01T04:40:44;11.13;;;7.60;;
80195;SDS011;69516;42.050;21.516;2023-08-01T04:43:11;9.23;;;7.20;;
80195;SDS011;69516;42.050;21.516;2023-08-01T04:45:37;9.50;;;7.22;;
80195;SDS011;69516;42.050;21.516;2023-08-01T04:48:03;9.55;;;5.95;;
80195;SDS011;69516;42.050;21.516;2023-08-01T04:50:29;7.63;;;6.32;;
80195;SDS011;69516;42.050;21.516;2023-08-01T04:52:55;8.73;;;6.53;;
80195;SDS011;69516;42.050;21.516;2023-08-01T04:55:22;7.63;;;6.00;;
80195;SDS011;69516;42.050;21.516;2023-08-01T04:57:48;7.40;;;5.82;;
80195;SDS011;69516;42.050;21.516;2023-08-01T05:00:14;8.55;;;5.82;;
80195;SDS011;69516;42.050;21.516;2023-08-01T05:02:40;8.52;;;6.22;;
80195;SDS011;69516;42.050;21.516;2023-08-01T05:05:06;8.70;;;6.10;;
80195;SDS011;69516;42.050;21.516;2023-08-01T05:07:32;9.18;;;6.07;;
80195;SDS011;69516;42.050;21.516;2023-08-01T05:09:58;8.73;;;6.65;;
80195;SDS011;69516;42.050;21.516;2023-08-01T05:12:24;8.75;;;5.90;;
80195;SDS011;69516;42.050;21.516;2023-08-01T05:14:51;8.70;;;6.70;;
80195;SDS011;69516;42.050;21.516;2023-08-01T05:17:17;9.82;;;7.68;;
80195;SDS011;69516;42.050;21.516;2023-08-01T05:19:43;8.75;;;6.95;;
80195;SDS011;69516;42.050;21.516;2023-08-01T05:22:09;9.90;;;7.15;;
80195;SDS011;69516;42.050;21.516;2023-08-01T05:24:35;10.25;;;7.07;;
80195;SDS011;69516;42.050;21.516;2023-08-01T05:27:02;9.38;;;6.80;;
80195;SDS011;69516;42.050;21.516;2023-08-01T05:29:28;7.53;;;5.43;;
80195;SDS011;69516;42.050;21.516;2023-08-01T05:31:54;9.10;;;5.75;;
80195;SDS011;69516;42.050;21.516;2023-08-01T05:34:20;8.68;;;5.88;;
80195;SDS011;69516;42.050;21.516;2023-08-01T05:36:46;8.80;;;5.78;;
80195;SDS011;69516;42.050;21.516;2023-08-01T05:39:12;7.47;;;5.22;;
80195;SDS011;69516;42.050;21.516;2023-08-01T05:41:38;8.73;;;5.50;;
80195;SDS011;69516;42.050;21.516;2023-08-01T05:44:05;8.77;;;5.38;;
80195;SDS011;69516;42.050;21.516;2023-08-01T05:46:31;7.97;;;4.82;;
80195;SDS011;69516;42.050;21.516;2023-08-01T05:48:57;9.55;;;5.68;;
80195;SDS011;69516;42.050;21.516;2023-08-01T05:51:24;8.63;;;5.70;;
80195;SDS011;69516;42.050;21.516;2023-08-01T05:53:50;6.43;;;5.03;;
80195;SDS011;69516;42.050;21.516;2023-08-01T05:56:16;6.43;;;4.72;;
80195;SDS011;69516;42.050;21.516;2023-08-01T05:58:42;7.30;;;5.18;;
80195;SDS011;69516;42.050;21.516;2023-08-01T06:01:09;11.13;;;4.93;;
80195;SDS011;69516;42.050;21.516;2023-08-01T06:03:37;7.47;;;4.78;;
80195;SDS011;69516;42.050;21.516;2023-08-01T06:06:03;6.50;;;4.78;;
80195;SDS011;69516;42.050;21.516;2023-08-01T06:08:30;7.57;;;4.50;;
80195;SDS011;69516;42.050;21.516;2023-08-01T06:10:56;7.18;;;4.75;;
80195;SDS011;69516;42.050;21.516;2023-08-01T06:13:23;7.63;;;4.50;;
80195;SDS011;69516;42.050;21.516;2023-08-01T06:15:49;6.22;;;4.50;;
80195;SDS011;69516;42.050;21.516;2023-08-01T06:18:15;8.38;;;4.70;;
80195;SDS011;69516;42.050;21.516;2023-08-01T06:20:41;9.63;;;4.93;;
80195;SDS011;69516;42.050;21.516;2023-08-01T06:23:07;8.05;;;5.13;;
80195;SDS011;69516;42.050;21.516;2023-08-01T06:25:33;7.15;;;3.85;;
80195;SDS011;69516;42.050;21.516;2023-08-01T06:27:59;7.72;;;4.60;;
80195;SDS011;69516;42.050;21.516;2023-08-01T06:30:25;6.22;;;4.85;;
80195;SDS011;69516;42.050;21.516;2023-08-01T06:32:52;7.65;;;4.68;;
80195;SDS011;69516;42.050;21.516;2023-08-01T06:35:18;6.60;;;4.95;;
80195;SDS011;69516;42.050;21.516;2023-08-01T06:37:44;6.20;;;4.68;;
80195;SDS011;69516;42.050;21.516;2023-08-01T06:40:11;6.13;;;4.60;;
80195;SDS011;69516;42.050;21.516;2023-08-01T06:42:37;6.28;;;4.28;;
80195;SDS011;69516;42.050;21.516;2023-08-01T06:45:04;6.30;;;4.18;;
80195;SDS011;69516;42.050;21.516;2023-08-01T06:47:31;6.63;;;4.25;;
80195;SDS011;69516;42.050;21.516;2023-08-01T06:49:57;6.13;;;4.05;;
80195;SDS011;69516;42.050;21.516;2023-08-01T06:52:23;7.05;;;3.83;;
80195;SDS011;69516;42.050;21.516;2023-08-01T06:54:49;7.40;;;3.92;;
80195;SDS011;69516;42.050;21.516;2023-08-01T06:57:15;6.88;;;4.30;;
80195;SDS011;69516;42.050;21.516;2023-08-01T06:59:41;6.25;;;3.83;;
80195;SDS011;69516;42.050;21.516;2023-08-01T07:02:08;5.65;;;3.70;;
80195;SDS011;69516;42.050;21.516;2023-08-01T07:04:34;5.90;;;3.85;;
80195;SDS011;69516;42.050;21.516;2023-08-01T07:07:00;5.50;;;3.17;;
80195;SDS011;69516;42.050;21.516;2023-08-01T07:09:26;7.03;;;3.85;;
80195;SDS011;69516;42.050;21.516;2023-08-01T07:11:52;5.32;;;3.95;;
80195;SDS011;69516;42.050;21.516;2023-08-01T07:14:18;7.05;;;3.58;;
80195;SDS011;69516;42.050;21.516;2023-08-01T07:16:44;7.65;;;4.07;;
80195;SDS011;69516;42.050;21.516;2023-08-01T07:19:10;8.43;;;4.03;;
80195;SDS011;69516;42.050;21.516;2023-08-01T07:21:36;7.20;;;3.72;;
80195;SDS011;69516;42.050;21.516;2023-08-01T07:24:03;5.95;;;3.90;;
80195;SDS011;69516;42.050;21.516;2023-08-01T07:26:29;6.53;;;3.78;;
80195;SDS011;69516;42.050;21.516;2023-08-01T07:28:55;6.82;;;3.78;;
80195;SDS011;69516;42.050;21.516;2023-08-01T07:31:21;6.68;;;4.00;;
80195;SDS011;69516;42.050;21.516;2023-08-01T07:33:47;6.80;;;3.42;;
80195;SDS011;69516;42.050;21.516;2023-08-01T07:36:13;6.25;;;3.47;;
80195;SDS011;69516;42.050;21.516;2023-08-01T07:38:39;6.10;;;3.50;;
80195;SDS011;69516;42.050;21.516;2023-08-01T07:41:06;5.82;;;3.58;;
80195;SDS011;69516;42.050;21.516;2023-08-01T07:43:32;4.57;;;3.08;;
80195;SDS011;69516;42.050;21.516;2023-08-01T07:45:59;5.55;;;3.63;;
80195;SDS011;69516;42.050;21.516;2023-08-01T07:48:25;5.50;;;3.50;;
80195;SDS011;69516;42.050;21.516;2023-08-01T07:50:51;6.60;;;3.83;;
80195;SDS011;69516;42.050;21.516;2023-08-01T07:53:17;6.85;;;3.67;;
80195;SDS011;69516;42.050;21.516;2023-08-01T07:55:44;7.68;;;3.42;;
80195;SDS011;69516;42.050;21.516;2023-08-01T07:58:10;7.38;;;3.60;;
80195;SDS011;69516;42.050;21.516;2023-08-01T08:00:36;6.25;;;3.92;;
80195;SDS011;69516;42.050;21.516;2023-08-01T08:03:02;6.70;;;3.78;;
80195;SDS011;69516;42.050;21.516;2023-08-01T08:05:28;7.28;;;3.60;;
80195;SDS011;69516;42.050;21.516;2023-08-01T08:07:54;6.93;;;4.10;;
80195;SDS011;69516;42.050;21.516;2023-08-01T08:10:20;5.97;;;4.05;;
80195;SDS011;69516;42.050;21.516;2023-08-01T08:12:46;7.00;;;4.50;;
80195;SDS011;69516;42.050;21.516;2023-08-01T08:15:13;7.55;;;4.28;;
80195;SDS011;69516;42.050;21.516;2023-08-01T08:17:41;7.53;;;4.13;;
80195;SDS011;69516;42.050;21.516;2023-08-01T08:20:07;8.15;;;4.40;;
80195;SDS011;69516;42.050;21.516;2023-08-01T08:22:33;6.60;;;4.32;;
80195;SDS011;69516;42.050;21.516;2023-08-01T08:24:59;6.97;;;3.97;;
80195;SDS011;69516;42.050;21.516;2023-08-01T08:27:25;7.00;;;3.92;;
80195;SDS011;69516;42.050;21.516;2023-08-01T08:29:52;7.60;;;3.75;;
80195;SDS011;69516;42.050;21.516;2023-08-01T08:32:18;8.52;;;4.13;;
80195;SDS011;69516;42.050;21.516;2023-08-01T08:34:44;6.97;;;3.67;;
80195;SDS011;69516;42.050;21.516;2023-08-01T08:37:10;5.85;;;3.67;;
80195;SDS011;69516;42.050;21.516;2023-08-01T08:39:36;7.10;;;3.85;;
80195;SDS011;69516;42.050;21.516;2023-08-01T08:42:02;5.93;;;3.50;;
80195;SDS011;69516;42.050;21.516;2023-08-01T08:44:30;7.47;;;3.63;;
80195;SDS011;69516;42.050;21.516;2023-08-01T08:47:01;5.70;;;3.53;;
80195;SDS011;69516;42.050;21.516;2023-08-01T08:49:29;7.70;;;3.72;;
80195;SDS011;69516;42.050;21.516;2023-08-01T08:51:55;7.13;;;3.50;;
80195;SDS011;69516;42.050;21.516;2023-08-01T08:54:21;5.85;;;3.40;;
80195;SDS011;69516;42.050;21.516;2023-08-01T08:56:48;4.93;;;3.22;;
80195;SDS011;69516;42.050;21.516;2023-08-01T08:59:15;6.63;;;3.95;;
80195;SDS011;69516;42.050;21.516;2023-08-01T09:01:41;6.20;;;3.40;;
80195;SDS011;69516;42.050;21.516;2023-08-01T09:04:08;6.10;;;3.60;;
80195;SDS011;69516;42.050;21.516;2023-08-01T09:06:55;6.15;;;3.55;;
80195;SDS011;69516;42.050;21.516;2023-08-01T09:09:20;7.72;;;3.15;;
80195;SDS011;69516;42.050;21.516;2023-08-01T09:11:52;5.78;;;3.45;;
80195;SDS011;69516;42.050;21.516;2023-08-01T09:14:19;6.45;;;3.88;;
80195;SDS011;69516;42.050;21.516;2023-08-01T09:16:45;6.53;;;3.22;;
80195;SDS011;69516;42.050;21.516;2023-08-01T09:19:16;5.60;;;3.20;;
80195;SDS011;69516;42.050;21.516;2023-08-01T09:21:42;5.57;;;3.50;;
80195;SDS011;69516;42.050;21.516;2023-08-01T09:26:35;6.32;;;3.47;;
80195;SDS011;69516;42.050;21.516;2023-08-01T09:29:02;5.00;;;3.05;;
80195;SDS011;69516;42.050;21.516;2023-08-01T09:31:29;6.25;;;3.30;;
80195;SDS011;69516;42.050;21.516;2023-08-01T09:33:55;5.28;;;3.17;;
80195;SDS011;69516;42.050;21.516;2023-08-01T09:36:21;5.35;;;2.90;;
80195;SDS011;69516;42.050;21.516;2023-08-01T09:38:48;6.25;;;3.30;;
80195;SDS011;69516;42.050;21.516;2023-08-01T09:41:17;5.82;;;3.50;;
80195;SDS011;69516;42.050;21.516;2023-08-01T09:43:44;5.22;;;3.20;;
80195;SDS011;69516;42.050;21.516;2023-08-01T09:46:11;5.57;;;3.28;;
80195;SDS011;69516;42.050;21.516;2023-08-01T09:48:37;5.90;;;3.40;;
80195;SDS011;69516;42.050;21.516;2023-08-01T09:51:07;4.50;;;3.08;;
80195;SDS011;69516;42.050;21.516;2023-08-01T09:53:34;6.45;;;3.17;;
80195;SDS011;69516;42.050;21.516;2023-08-01T09:56:00;4.55;;;3.08;;
80195;SDS011;69516;42.050;21.516;2023-08-01T09:58:33;5.00;;;3.22;;
80195;SDS011;69516;42.050;21.516;2023-08-01T10:00:59;5.32;;;3.30;;
80195;SDS011;69516;42.050;21.516;2023-08-01T10:03:29;5.80;;;3.30;;
80195;SDS011;69516;42.050;21.516;2023-08-01T10:05:56;5.45;;;3.22;;
80195;SDS011;69516;42.050;21.516;2023-08-01T10:08:22;5.03;;;3.00;;
80195;SDS011;69516;42.050;21.516;2023-08-01T10:10:48;6.07;;;3.50;;
80195;SDS011;69516;42.050;21.516;2023-08-01T10:13:15;4.75;;;3.00;;
80195;SDS011;69516;42.050;21.516;2023-08-01T10:15:41;5.43;;;3.00;;
80195;SDS011;69516;42.050;21.516;2023-08-01T10:18:08;5.85;;;3.15;;
80195;SDS011;69516;42.050;21.516;2023-08-01T10:20:35;5.68;;;3.15;;
80195;SDS011;69516;42.050;21.516;2023-08-01T10:23:02;5.57;;;3.42;;
80195;SDS011;69516;42.050;21.516;2023-08-01T10:25:29;4.97;;;3.10;;
80195;SDS011;69516;42.050;21.516;2023-08-01T10:27:59;7.00;;;3.38;;
80195;SDS011;69516;42.050;21.516;2023-08-01T10:30:26;6.57;;;3.20;;
80195;SDS011;69516;42.050;21.516;2023-08-01T10:32:54;5.28;;;3.28;;
80195;SDS011;69516;42.050;21.516;2023-08-01T10:35:30;5.82;;;3.30;;
80195;SDS011;69516;42.050;21.516;2023-08-01T10:38:03;5.47;;;3.30;;
80195;SDS011;69516;42.050;21.516;2023-08-01T10:40:32;6.78;;;3.50;;
80195;SDS011;69516;42.050;21.516;2023-08-01T10:42:58;5.10;;;3.20;;
80195;SDS011;69516;42.050;21.516;2023-08-01T10:45:24;4.85;;;3.15;;
80195;SDS011;69516;42.050;21.516;2023-08-01T10:47:53;4.60;;;3.17;;
80195;SDS011;69516;42.050;21.516;2023-08-01T10:50:19;5.10;;;3.03;;
80195;SDS011;69516;42.050;21.516;2023-08-01T10:52:45;5.50;;;3.47;;
80195;SDS011;69516;42.050;21.516;2023-08-01T10:55:11;5.30;;;3.33;;
80195;SDS011;69516;42.050;21.516;2023-08-01T10:57:47;5.40;;;3.35;;
80195;SDS011;69516;42.050;21.516;2023-08-01T11:02:51;8.35;;;3.50;;
80195;SDS011;69516;42.050;21.516;2023-08-01T11:05:17;6.05;;;3.42;;
80195;SDS011;69516;42.050;21.516;2023-08-01T11:07:52;4.93;;;3.15;;
80195;SDS011;69516;42.050;21.516;2023-08-01T11:10:20;4.95;;;3.10;;
80195;SDS011;69516;42.050;21.516;2023-08-01T11:12:46;5.20;;;3.20;;
80195;SDS011;69516;42.050;21.516;2023-08-01T11:15:12;4.78;;;3.03;;
80195;SDS011;69516;42.050;21.516;2023-08-01T11:17:39;6.15;;;3.47;;
80195;SDS011;69516;42.050;21.516;2023-08-01T11:20:06;5.68;;;3.55;;
80195;SDS011;69516;42.050;21.516;2023-08-01T11:22:33;4.70;;;3.05;;
80195;SDS011;69516;42.050;21.516;2023-08-01T11:24:59;5.28;;;2.85;;
80195;SDS011;69516;42.050;21.516;2023-08-01T11:27:26;4.90;;;2.92;;
80195;SDS011;69516;42.050;21.516;2023-08-01T11:29:52;4.90;;;3.08;;
80195;SDS011;69516;42.050;21.516;2023-08-01T11:32:19;5.13;;;3.17;;
80195;SDS011;69516;42.050;21.516;2023-08-01T11:34:46;4.63;;;2.97;;
80195;SDS011;69516;42.050;21.516;2023-08-01T11:37:12;4.70;;;2.70;;
80195;SDS011;69516;42.050;21.516;2023-08-01T11:39:39;4.60;;;3.08;;
80195;SDS011;69516;42.050;21.516;2023-08-01T11:42:05;5.65;;;3.40;;
80195;SDS011;69516;42.050;21.516;2023-08-01T11:44:31;6.88;;;3.17;;
80195;SDS011;69516;42.050;21.516;2023-08-01T11:46:57;4.60;;;3.10;;
80195;SDS011;69516;42.050;21.516;2023-08-01T11:49:24;4.93;;;3.20;;
80195;SDS011;69516;42.050;21.516;2023-08-01T11:51:51;6.47;;;3.30;;
80195;SDS011;69516;42.050;21.516;2023-08-01T11:54:17;5.47;;;3.72;;
80195;SDS011;69516;42.050;21.516;2023-08-01T11:56:43;5.38;;;3.33;;
80195;SDS011;69516;42.050;21.516;2023-08-01T11:59:10;5.30;;;3.55;;
80195;SDS011;69516;42.050;21.516;2023-08-01T12:01:40;5.00;;;3.72;;
80195;SDS011;69516;42.050;21.516;2023-08-01T12:04:06;4.93;;;3.65;;
80195;SDS011;69516;42.050;21.516;2023-08-01T12:06:33;6.00;;;3.33;;
80195;SDS011;69516;42.050;21.516;2023-08-01T12:09:07;5.53;;;3.65;;
80195;SDS011;69516;42.050;21.516;2023-08-01T12:11:33;4.70;;;3.30;;
80195;SDS011;69516;42.050;21.516;2023-08-01T12:14:17;5.28;;;3.50;;
80195;SDS011;69516;42.050;21.516;2023-08-01T12:16:46;5.13;;;3.30;;
80195;SDS011;69516;42.050;21.516;2023-08-01T12:19:19;6.40;;;3.72;;
80195;SDS011;69516;42.050;21.516;2023-08-01T12:21:45;5.75;;;3.33;;
80195;SDS011;69516;42.050;21.516;2023-08-01T12:24:11;5.72;;;3.90;;
80195;SDS011;69516;42.050;21.516;2023-08-01T12:26:37;5.60;;;3.60;;
80195;SDS011;69516;42.050;21.516;2023-08-01T12:29:04;5.10;;;3.70;;
80195;SDS011;69516;42.050;21.516;2023-08-01T12:31:30;5.65;;;3.60;;
80195;SDS011;69516;42.050;21.516;2023-08-01T12:33:56;8.13;;;3.45;;
80195;SDS011;69516;42.050;21.516;2023-08-01T12:36:22;5.32;;;3.50;;
80195;SDS011;69516;42.050;21.516;2023-08-01T12:38:49;4.75;;;3.30;;
80195;SDS011;69516;42.050;21.516;2023-08-01T12:41:15;5.28;;;3.50;;
80195;SDS011;69516;42.050;21.516;2023-08-01T12:43:41;5.50;;;3.42;;
80195;SDS011;69516;42.050;21.516;2023-08-01T12:46:07;6.10;;;3.95;;
80195;SDS011;69516;42.050;21.516;2023-08-01T12:48:34;5.13;;;3.50;;
80195;SDS011;69516;42.050;21.516;2023-08-01T12:51:00;5.13;;;3.67;;
80195;SDS011;69516;42.050;21.516;2023-08-01T12:53:26;7.15;;;3.97;;
80195;SDS011;69516;42.050;21.516;2023-08-01T12:55:52;4.95;;;3.83;;
80195;SDS011;69516;42.050;21.516;2023-08-01T12:58:18;6.18;;;3.70;;
80195;SDS011;69516;42.050;21.516;2023-08-01T13:00:44;4.80;;;3.17;;
80195;SDS011;69516;42.050;21.516;2023-08-01T13:03:11;5.20;;;3.72;;
80195;SDS011;69516;42.050;21.516;2023-08-01T13:05:37;5.75;;;3.70;;
80195;SDS011;69516;42.050;21.516;2023-08-01T13:08:04;5.35;;;3.78;;
80195;SDS011;69516;42.050;21.516;2023-08-01T13:10:31;5.60;;;3.58;;
80195;SDS011;69516;42.050;21.516;2023-08-01T13:12:58;5.57;;;3.70;;
80195;SDS011;69516;42.050;21.516;2023-08-01T13:15:24;6.38;;;3.90;;
80195;SDS011;69516;42.050;21.516;2023-08-01T13:17:50;6.13;;;3.75;;
80195;SDS011;69516;42.050;21.516;2023-08-01T13:20:16;6.43;;;3.95;;
80195;SDS011;69516;42.050;21.516;2023-08-01T13:22:43;5.60;;;3.58;;
80195;SDS011;69516;42.050;21.516;2023-08-01T13:25:09;5.50;;;3.90;;
80195;SDS011;69516;42.050;21.516;2023-08-01T13:27:35;5.10;;;3.63;;
80195;SDS011;69516;42.050;21.516;2023-08-01T13:30:02;5.10;;;3.33;;
80195;SDS011;69516;42.050;21.516;2023-08-01T13:32:28;5.60;;;3.50;;
80195;SDS011;69516;42.050;21.516;2023-08-01T13:34:54;5.25;;;3.58;;
80195;SDS011;69516;42.050;21.516;2023-08-01T13:37:20;5.15;;;3.53;;
80195;SDS011;69516;42.050;21.516;2023-08-01T13:39:46;5.10;;;3.47;;
80195;SDS011;69516;42.050;21.516;2023-08-01T13:42:12;5.82;;;3.40;;
80195;SDS011;69516;42.050;21.516;2023-08-01T13:44:39;6.60;;;3.50;;
80195;SDS011;69516;42.050;21.516;2023-08-01T13:47:05;6.30;;;3.78;;
80195;SDS011;69516;42.050;21.516;2023-08-01T13:49:32;5.30;;;3.47;;
80195;SDS011;69516;42.050;21.516;2023-08-01T13:51:58;5.82;;;3.45;;
80195;SDS011;69516;42.050;21.516;2023-08-01T13:54:25;5.43;;;3.78;;
80195;SDS011;69516;42.050;21.516;2023-08-01T13:56:51;5.97;;;3.60;;
80195;SDS011;69516;42.050;21.516;2023-08-01T13:59:18;5.03;;;3.47;;
80195;SDS011;69516;42.050;21.516;2023-08-01T14:01:45;5.53;;;3.63;;
80195;SDS011;69516;42.050;21.516;2023-08-01T14:04:11;5.10;;;3.40;;
80195;SDS011;69516;42.050;21.516;2023-08-01T14:06:40;6.85;;;3.80;;
80195;SDS011;69516;42.050;21.516;2023-08-01T14:09:07;6.43;;;3.83;;
80195;SDS011;69516;42.050;21.516;2023-08-01T14:11:37;6.22;;;3.65;;
80195;SDS011;69516;42.050;21.516;2023-08-01T14:14:03;5.40;;;3.70;;
80195;SDS011;69516;42.050;21.516;2023-08-01T14:16:29;5.32;;;3.47;;
80195;SDS011;69516;42.050;21.516;2023-08-01T14:18:56;5.20;;;3.72;;
80195;SDS011;69516;42.050;21.516;2023-08-01T14:21:22;5.35;;;3.70;;
80195;SDS011;69516;42.050;21.516;2023-08-01T14:23:48;6.55;;;3.70;;
80195;SDS011;69516;42.050;21.516;2023-08-01T14:26:14;5.05;;;3.63;;
80195;SDS011;69516;42.050;21.516;2023-08-01T14:28:40;5.50;;;3.40;;
80195;SDS011;69516;42.050;21.516;2023-08-01T14:31:07;5.72;;;4.00;;
80195;SDS011;69516;42.050;21.516;2023-08-01T14:33:33;5.75;;;3.38;;